createdAt,value
2022-09-26T00:00:49.561Z,12.87
2022-09-26T00:03:17.587Z,12.89
2022-09-26T00:05:46.825Z,12.80
2022-09-26T00:08:14.654Z,12.70
2022-09-26T00:10:42.486Z,12.83
2022-09-26T00:13:10.352Z,12.80
2022-09-26T00:15:38.213Z,12.80
2022-09-26T00:18:06.102Z,12.87
2022-09-26T00:20:34.004Z,12.93
2022-09-26T00:23:03.163Z,13.02
2022-09-26T00:25:31.060Z,13.00
2022-09-26T00:27:58.928Z,13.10
2022-09-26T00:30:26.839Z,13.19
2022-09-26T00:32:54.694Z,13.28
2022-09-26T00:35:22.531Z,13.22
2022-09-26T00:37:50.373Z,13.24
2022-09-26T00:40:19.859Z,13.24
2022-09-26T00:42:47.832Z,13.27
2022-09-26T00:45:15.790Z,13.23
2022-09-26T00:47:46.253Z,13.27
2022-09-26T00:50:19.717Z,13.17
2022-09-26T00:52:51.872Z,13.25
2022-09-26T00:55:23.681Z,13.13
2022-09-26T00:57:57.636Z,13.06
2022-09-26T01:00:25.547Z,12.97
2022-09-26T01:02:54.376Z,13.14
2022-09-26T01:05:24.485Z,13.21
2022-09-26T01:07:53.964Z,13.15
2022-09-26T01:10:24.433Z,13.07
2022-09-26T01:12:52.616Z,12.99
2022-09-26T01:15:20.806Z,12.87
2022-09-26T01:17:49.752Z,12.83
2022-09-26T01:20:38.284Z,12.96
2022-09-26T01:23:41.714Z,13.04
2022-09-26T01:26:29.229Z,12.98
2022-09-26T01:29:31.879Z,13.11
2022-09-26T01:32:22.970Z,13.03
2022-09-26T01:34:56.758Z,13.09
2022-09-26T01:37:32.017Z,13.09
2022-09-26T01:40:09.411Z,13.21
2022-09-26T01:42:40.428Z,13.34
2022-09-26T01:45:12.610Z,13.37
2022-09-26T01:47:43.745Z,13.31
2022-09-26T01:50:19.022Z,13.30
2022-09-26T01:52:51.843Z,13.21
2022-09-26T01:55:23.865Z,13.23
2022-09-26T01:57:54.938Z,13.27
2022-09-26T02:00:23.431Z,13.46
2022-09-26T02:02:52.782Z,13.62
2022-09-26T02:05:25.305Z,13.69
2022-09-26T02:07:56.361Z,13.66
2022-09-26T02:10:27.524Z,13.68
2022-09-26T02:12:59.335Z,13.51
2022-09-26T02:15:30.614Z,13.56
2022-09-26T02:18:06.500Z,13.65
2022-09-26T02:20:36.619Z,13.61
2022-09-26T02:23:05.169Z,13.49
2022-09-26T02:25:34.522Z,13.50
2022-09-26T02:28:02.829Z,13.49
2022-09-26T02:30:31.032Z,13.46
2022-09-26T02:33:01.028Z,13.40
2022-09-26T02:35:46.321Z,13.32
2022-09-26T02:38:14.227Z,13.38
2022-09-26T02:40:54.036Z,13.38
2022-09-26T02:43:32.366Z,13.37
2022-09-26T02:46:09.228Z,13.47
2022-09-26T02:48:48.385Z,13.40
2022-09-26T02:51:31.789Z,13.47
2022-09-26T02:54:17.262Z,13.50
2022-09-26T02:56:59.161Z,13.61
2022-09-26T02:59:35.123Z,13.52
2022-09-26T03:02:06.973Z,13.57
2022-09-26T03:04:43.030Z,13.59
2022-09-26T03:07:14.758Z,13.68
2022-09-26T03:09:43.676Z,13.57
2022-09-26T03:12:12.043Z,13.72
2022-09-26T03:14:41.707Z,13.85
2022-09-26T03:17:10.139Z,13.45
2022-09-26T03:19:44.967Z,13.46
2022-09-26T03:22:13.049Z,13.30
2022-09-26T03:24:42.152Z,13.46
2022-09-26T03:27:11.778Z,13.38
2022-09-26T03:29:40.044Z,13.56
2022-09-26T03:32:12.857Z,13.55
2022-09-26T03:34:42.570Z,13.41
2022-09-26T03:37:11.325Z,13.42
2022-09-26T03:39:39.363Z,13.38
2022-09-26T03:42:14.268Z,13.35
2022-09-26T03:44:44.070Z,13.20
2022-09-26T03:47:15.791Z,13.29
2022-09-26T03:49:47.272Z,13.37
2022-09-26T03:52:15.222Z,13.41
2022-09-26T03:54:44.868Z,13.35
2022-09-26T03:57:13.620Z,13.28
2022-09-26T03:59:48.038Z,13.15
2022-09-26T04:02:18.272Z,13.18
2022-09-26T04:04:51.162Z,13.00
2022-09-26T04:07:19.590Z,13.24
2022-09-26T04:09:47.680Z,13.37
2022-09-26T04:12:15.684Z,13.42
2022-09-26T04:14:45.285Z,13.41
2022-09-26T04:17:13.545Z,13.35
2022-09-26T04:19:44.503Z,13.27
2022-09-26T04:22:13.781Z,13.37
2022-09-26T04:24:41.991Z,13.28
2022-09-26T04:27:09.801Z,13.21
2022-09-26T04:29:38.560Z,13.23
2022-09-26T04:32:12.490Z,13.09
2022-09-26T04:34:52.656Z,13.14
2022-09-26T04:37:22.651Z,13.30
2022-09-26T04:39:50.631Z,13.11
2022-09-26T04:42:18.515Z,13.16
2022-09-26T04:44:48.173Z,13.03
2022-09-26T04:47:17.701Z,12.96
2022-09-26T04:50:06.402Z,13.11
2022-09-26T04:52:35.633Z,13.10
2022-09-26T04:55:03.953Z,13.07
2022-09-26T04:57:32.053Z,13.04
2022-09-26T05:00:00.098Z,13.09
2022-09-26T05:02:29.981Z,13.10
2022-09-26T05:04:59.779Z,13.11
2022-09-26T05:07:31.438Z,13.07
2022-09-26T05:10:00.660Z,12.85
2022-09-26T05:12:28.759Z,13.00
2022-09-26T05:14:56.821Z,13.02
2022-09-26T05:17:24.857Z,13.01
2022-09-26T05:19:56.978Z,13.12
2022-09-26T05:22:34.047Z,13.11
2022-09-26T05:25:22.161Z,13.08
2022-09-26T05:27:50.077Z,13.19
2022-09-26T05:30:18.239Z,13.08
2022-09-26T05:32:48.359Z,13.23
2022-09-26T05:35:17.654Z,13.13
2022-09-26T05:37:46.229Z,13.10
2022-09-26T05:40:33.401Z,13.06
2022-09-26T05:43:02.495Z,13.05
2022-09-26T05:45:31.299Z,13.08
2022-09-26T05:48:00.536Z,13.18
2022-09-26T05:50:28.877Z,13.29
2022-09-26T05:52:58.658Z,13.25
2022-09-26T05:55:29.027Z,13.22
2022-09-26T05:58:15.755Z,13.21
2022-09-26T06:01:08.069Z,13.27
2022-09-26T06:03:36.825Z,13.18
2022-09-26T06:06:11.531Z,13.38
2022-09-26T06:08:40.479Z,13.37
2022-09-26T06:11:31.617Z,13.43
2022-09-26T06:14:01.120Z,13.32
2022-09-26T06:16:29.753Z,13.38
2022-09-26T06:18:58.632Z,13.36
2022-09-26T06:21:27.413Z,13.51
2022-09-26T06:24:00.578Z,13.65
2022-09-26T06:26:31.844Z,13.51
2022-09-26T06:29:00.728Z,13.49
2022-09-26T06:31:31.640Z,13.76
2022-09-26T06:34:13.103Z,13.70
2022-09-26T06:37:00.291Z,13.86
2022-09-26T06:39:35.541Z,13.75
2022-09-26T06:42:07.401Z,14.03
2022-09-26T06:44:59.488Z,14.16
2022-09-26T06:47:48.229Z,14.03
2022-09-26T06:50:53.185Z,14.15
2022-09-26T06:53:21.720Z,14.30
2022-09-26T06:55:50.331Z,14.31
2022-09-26T06:58:20.335Z,14.63
2022-09-26T07:00:55.063Z,14.42
2022-09-26T07:04:01.394Z,14.33
2022-09-26T07:06:49.893Z,14.67
2022-09-26T07:09:18.505Z,14.69
2022-09-26T07:14:42.963Z,14.46
2022-09-26T07:17:28.735Z,14.38
2022-09-26T07:20:37.428Z,14.47
2022-09-26T07:23:16.919Z,14.62
2022-09-26T07:25:46.394Z,14.59
2022-09-26T07:28:15.171Z,14.68
2022-09-26T07:30:51.893Z,14.35
2022-09-26T07:33:45.672Z,14.55
2022-09-26T07:36:13.631Z,14.56
2022-09-26T07:38:43.810Z,14.44
2022-09-26T07:41:12.260Z,14.68
2022-09-26T07:46:48.999Z,14.44
2022-09-26T07:49:34.529Z,14.66
2022-09-26T07:52:22.466Z,15.09
2022-09-26T07:55:29.384Z,14.84
2022-09-26T07:58:07.845Z,14.61
2022-09-26T08:00:55.892Z,14.77
2022-09-26T08:03:44.863Z,14.79
2022-09-26T08:06:23.937Z,14.76
2022-09-26T08:08:54.271Z,14.89
2022-09-26T08:11:41.820Z,14.77
2022-09-26T08:14:20.801Z,14.91
2022-09-26T08:17:21.657Z,14.70
2022-09-26T08:19:50.864Z,14.63
2022-09-26T08:22:18.738Z,14.74
2022-09-26T08:24:50.885Z,14.69
2022-09-26T08:27:33.541Z,14.74
2022-09-26T08:30:02.685Z,14.66
2022-09-26T08:32:31.662Z,14.83
2022-09-26T08:35:00.949Z,14.68
2022-09-26T08:38:04.828Z,14.88
2022-09-26T08:40:51.643Z,14.47
2022-09-26T08:43:55.971Z,14.32
2022-09-26T08:46:59.830Z,14.32
2022-09-26T08:49:49.127Z,14.13
2022-09-26T08:52:29.570Z,14.35
2022-09-26T08:54:59.675Z,14.28
2022-09-26T08:57:34.075Z,14.22
2022-09-26T09:00:10.066Z,14.33
2022-09-26T09:02:42.417Z,14.09
2022-09-26T09:05:19.180Z,14.12
2022-09-26T09:07:52.515Z,14.18
2022-09-26T09:10:28.859Z,13.94
2022-09-26T09:13:10.782Z,13.65
2022-09-26T09:16:04.885Z,13.88
2022-09-26T09:18:55.436Z,13.42
2022-09-26T09:21:41.765Z,13.59
2022-09-26T09:24:52.464Z,13.39
2022-09-26T09:30:19.852Z,13.45
2022-09-26T09:33:13.180Z,13.37
2022-09-26T09:36:08.082Z,13.37
2022-09-26T09:38:45.788Z,13.19
2022-09-26T09:41:25.486Z,13.31
2022-09-26T09:43:55.565Z,13.31
2022-09-26T09:46:28.714Z,13.40
2022-09-26T09:48:58.304Z,13.47
2022-09-26T09:51:39.592Z,13.35
2022-09-26T09:54:25.903Z,13.59
2022-09-26T09:57:12.623Z,13.52
2022-09-26T09:59:52.680Z,13.55
2022-09-26T10:02:29.966Z,13.63
2022-09-26T10:05:06.201Z,13.73
2022-09-26T10:07:34.086Z,13.78
2022-09-26T10:10:29.574Z,13.80
2022-09-26T10:13:17.898Z,13.74
2022-09-26T10:16:07.047Z,13.48
2022-09-26T10:19:03.321Z,13.77
2022-09-26T10:21:39.322Z,13.67
2022-09-26T10:24:08.681Z,13.59
2022-09-26T10:26:47.402Z,13.64
2022-09-26T10:29:35.153Z,13.64
2022-09-26T10:32:03.740Z,13.56
2022-09-26T10:34:35.292Z,13.53
2022-09-26T10:37:21.573Z,13.36
2022-09-26T10:40:08.450Z,13.61
2022-09-26T10:42:38.317Z,13.60
2022-09-26T10:45:15.814Z,13.71
2022-09-26T10:48:02.902Z,13.97
2022-09-26T10:50:51.449Z,13.80
2022-09-26T10:53:40.134Z,13.76
2022-09-26T10:56:11.985Z,14.32
2022-09-26T10:58:42.114Z,14.19
2022-09-26T11:01:21.367Z,14.41
2022-09-26T11:03:51.179Z,14.40
2022-09-26T11:06:27.926Z,14.34
2022-09-26T11:09:03.519Z,14.35
2022-09-26T11:11:39.329Z,14.29
2022-09-26T11:14:09.439Z,14.46
2022-09-26T11:16:51.334Z,14.20
2022-09-26T11:19:28.873Z,14.39
2022-09-26T11:22:03.189Z,14.49
2022-09-26T11:27:31.569Z,14.38
2022-09-26T11:33:11.226Z,14.50
2022-09-26T11:36:10.969Z,14.49
2022-09-26T11:38:46.371Z,14.35
2022-09-26T11:41:38.279Z,14.34
2022-09-26T11:44:33.807Z,14.42
2022-09-26T11:47:44.799Z,14.61
2022-09-26T11:50:30.173Z,14.67
2022-09-26T11:53:44.257Z,14.96
2022-09-26T11:56:26.559Z,15.22
2022-09-26T11:59:01.443Z,15.30
2022-09-26T12:01:38.198Z,15.63
2022-09-26T12:04:31.013Z,15.50
2022-09-26T12:07:07.171Z,15.57
2022-09-26T12:09:48.946Z,15.68
2022-09-26T12:12:20.712Z,15.61
2022-09-26T12:15:02.208Z,15.76
2022-09-26T12:17:41.031Z,15.75
2022-09-26T12:20:18.251Z,16.30
2022-09-26T12:22:52.093Z,16.07
2022-09-26T12:25:30.102Z,16.01
2022-09-26T12:28:09.257Z,15.84
2022-09-26T12:30:41.464Z,15.44
2022-09-26T12:33:30.471Z,15.45
2022-09-26T12:36:02.264Z,15.77
2022-09-26T12:38:54.355Z,15.74
2022-09-26T12:41:51.713Z,15.77
2022-09-26T12:44:31.290Z,15.94
2022-09-26T12:47:10.689Z,15.78
2022-09-26T12:49:55.087Z,15.72
2022-09-26T12:52:34.790Z,15.64
2022-09-26T12:55:15.986Z,15.84
2022-09-26T12:57:57.216Z,16.30
2022-09-26T13:00:27.000Z,16.30
2022-09-26T13:03:28.208Z,16.21
2022-09-26T13:06:34.953Z,16.08
2022-09-26T13:09:13.162Z,16.12
2022-09-26T13:11:45.831Z,15.79
2022-09-26T13:14:27.912Z,15.64
2022-09-26T13:17:09.781Z,15.06
2022-09-26T13:19:40.753Z,15.03
2022-09-26T13:22:22.054Z,14.69
2022-09-26T13:24:53.543Z,14.85
2022-09-26T13:27:26.765Z,14.48
2022-09-26T13:30:01.888Z,14.49
2022-09-26T13:32:36.868Z,14.78
2022-09-26T13:35:09.386Z,14.51
2022-09-26T13:37:47.735Z,14.57
2022-09-26T13:40:28.926Z,14.65
2022-09-26T13:43:07.809Z,14.58
2022-09-26T13:45:49.016Z,14.55
2022-09-26T13:48:20.825Z,14.58
2022-09-26T13:50:55.834Z,14.49
2022-09-26T13:53:28.794Z,14.32
2022-09-26T13:56:47.506Z,14.52
2022-09-26T13:59:34.553Z,14.19
2022-09-26T14:02:24.724Z,14.40
2022-09-26T14:04:53.786Z,14.56
2022-09-26T14:07:42.588Z,14.74
2022-09-26T14:10:19.517Z,14.65
2022-09-26T14:12:56.958Z,14.95
2022-09-26T14:15:28.321Z,14.80
2022-09-26T14:18:29.557Z,15.05
2022-09-26T14:21:08.850Z,15.04
2022-09-26T14:23:41.790Z,14.91
2022-09-26T14:26:11.818Z,14.74
2022-09-26T14:28:40.787Z,14.63
2022-09-26T14:31:32.778Z,14.69
2022-09-26T14:34:17.038Z,14.77
2022-09-26T14:36:45.762Z,14.53
2022-09-26T14:39:26.128Z,14.68
2022-09-26T14:41:54.751Z,14.73
2022-09-26T14:44:23.650Z,14.75
2022-09-26T14:46:54.454Z,14.52
2022-09-26T14:49:24.666Z,14.76
2022-09-26T14:51:58.774Z,14.48
2022-09-26T14:54:31.923Z,14.53
2022-09-26T14:57:01.635Z,14.57
2022-09-26T14:59:43.683Z,14.39
2022-09-26T15:02:21.308Z,14.37
2022-09-26T15:04:56.121Z,14.45
2022-09-26T15:07:25.806Z,14.49
2022-09-26T15:09:58.019Z,14.33
2022-09-26T15:12:29.910Z,14.23
2022-09-26T15:15:11.571Z,14.21
2022-09-26T15:17:45.659Z,14.18
2022-09-26T15:20:16.896Z,14.40
2022-09-26T15:22:45.291Z,14.35
2022-09-26T15:25:21.622Z,14.23
2022-09-26T15:27:53.843Z,13.80
2022-09-26T15:30:24.302Z,14.00
2022-09-26T15:32:57.288Z,13.93
2022-09-26T15:35:26.702Z,14.07
2022-09-26T15:37:58.541Z,14.05
2022-09-26T15:40:28.142Z,13.94
2022-09-26T15:43:07.962Z,14.00
2022-09-26T15:45:58.208Z,13.91
2022-09-26T15:48:30.230Z,13.77
2022-09-26T15:51:02.219Z,13.90
2022-09-26T15:53:34.747Z,13.79
2022-09-26T15:56:05.983Z,13.87
2022-09-26T15:58:37.765Z,13.73
2022-09-26T16:01:06.506Z,13.65
2022-09-26T16:03:45.130Z,13.80
2022-09-26T16:06:23.056Z,13.69
2022-09-26T16:08:54.094Z,13.68
2022-09-26T16:11:22.491Z,13.85
2022-09-26T16:13:51.956Z,13.85
2022-09-26T16:16:24.369Z,13.99
2022-09-26T16:18:57.205Z,13.98
2022-09-26T16:21:26.787Z,13.80
2022-09-26T16:23:57.074Z,13.92
2022-09-26T16:26:31.156Z,13.89
2022-09-26T16:29:00.620Z,13.89
2022-09-26T16:31:31.860Z,13.89
2022-09-26T16:34:02.454Z,13.99
2022-09-26T16:36:32.591Z,13.97
2022-09-26T16:39:02.316Z,13.78
2022-09-26T16:42:01.268Z,13.90
2022-09-26T16:44:33.535Z,13.81
2022-09-26T16:47:05.332Z,13.86
2022-09-26T16:49:42.202Z,13.77
2022-09-26T16:52:21.973Z,13.92
2022-09-26T16:54:49.921Z,13.70
2022-09-26T16:57:22.701Z,13.71
2022-09-26T16:59:51.068Z,13.74
2022-09-26T17:02:18.310Z,13.66
2022-09-26T17:04:48.505Z,13.75
2022-09-26T17:07:16.757Z,13.75
2022-09-26T17:09:44.615Z,13.60
2022-09-26T17:12:18.080Z,13.62
2022-09-26T17:14:49.262Z,13.68
2022-09-26T17:17:21.909Z,13.46
2022-09-26T17:19:58.208Z,13.80
2022-09-26T17:22:27.204Z,13.73
2022-09-26T17:24:55.559Z,13.69
2022-09-26T17:27:26.943Z,13.63
2022-09-26T17:30:02.321Z,13.30
2022-09-26T17:32:32.461Z,13.27
2022-09-26T17:35:03.805Z,13.34
2022-09-26T17:37:32.038Z,13.13
2022-09-26T17:39:59.885Z,13.22
2022-09-26T17:42:30.282Z,13.20
2022-09-26T17:44:58.129Z,13.27
2022-09-26T17:47:26.378Z,13.18
2022-09-26T17:49:54.794Z,13.22
2022-09-26T17:52:25.873Z,13.32
2022-09-26T17:54:57.340Z,13.05
2022-09-26T17:57:29.957Z,13.16
2022-09-26T17:59:57.901Z,13.19
2022-09-26T18:02:30.551Z,13.05
2022-09-26T18:05:00.946Z,13.06
2022-09-26T18:07:34.130Z,12.97
2022-09-26T18:10:03.524Z,12.98
2022-09-26T18:12:31.336Z,13.05
2022-09-26T18:14:59.967Z,12.91
2022-09-26T18:17:27.939Z,12.88
2022-09-26T18:19:55.778Z,12.99
2022-09-26T18:22:27.179Z,12.91
2022-09-26T18:25:01.310Z,12.77
2022-09-26T18:27:29.188Z,12.93
2022-09-26T18:29:56.989Z,12.95
2022-09-26T18:32:27.260Z,12.91
2022-09-26T18:34:55.101Z,12.86
2022-09-26T18:37:22.916Z,12.77
2022-09-26T18:39:54.661Z,12.87
2022-09-26T18:42:25.012Z,12.86
2022-09-26T18:45:03.503Z,12.74
2022-09-26T18:47:34.545Z,12.70
2022-09-26T18:50:02.667Z,12.65
2022-09-26T18:52:31.328Z,12.67
2022-09-26T18:55:17.039Z,12.86
2022-09-26T18:58:03.883Z,12.64
2022-09-26T19:00:31.722Z,12.79
2022-09-26T19:02:59.994Z,12.82
2022-09-26T19:05:27.928Z,12.80
2022-09-26T19:07:57.188Z,12.88
2022-09-26T19:10:27.068Z,12.86
2022-09-26T19:12:56.500Z,12.85
2022-09-26T19:15:24.676Z,12.77
2022-09-26T19:17:52.514Z,12.72
2022-09-26T19:20:20.313Z,12.83
2022-09-26T19:22:48.227Z,12.59
2022-09-26T19:25:16.067Z,12.72
2022-09-26T19:27:47.132Z,12.64
2022-09-26T19:30:18.399Z,12.54
2022-09-26T19:32:49.228Z,12.71
2022-09-26T19:35:23.055Z,12.73
2022-09-26T19:37:51.197Z,12.72
2022-09-26T19:40:20.592Z,12.67
2022-09-26T19:42:48.920Z,12.89
2022-09-26T19:45:19.527Z,12.86
2022-09-26T19:47:48.619Z,12.72
2022-09-26T19:50:18.290Z,12.69
2022-09-26T19:52:46.097Z,12.71
2022-09-26T19:55:15.469Z,12.69
2022-09-26T19:57:43.317Z,12.69
2022-09-26T20:00:12.740Z,12.72
2022-09-26T20:02:42.356Z,12.80
2022-09-26T20:05:16.947Z,13.02
2022-09-26T20:07:44.775Z,13.17
2022-09-26T20:10:15.572Z,13.07
2022-09-26T20:12:43.386Z,12.94
2022-09-26T20:15:12.590Z,13.00
2022-09-26T20:17:44.081Z,12.88
2022-09-26T20:20:16.925Z,12.94
2022-09-26T20:22:45.276Z,13.15
2022-09-26T20:25:15.666Z,13.27
2022-09-26T20:27:43.913Z,13.19
2022-09-26T20:30:32.462Z,12.99
2022-09-26T20:33:02.039Z,12.98
2022-09-26T20:35:35.344Z,13.11
2022-09-26T20:38:05.238Z,12.87
2022-09-26T20:40:33.331Z,13.13
2022-09-26T20:43:04.651Z,13.13
2022-09-26T20:45:38.639Z,13.05
2022-09-26T20:48:09.213Z,13.02
2022-09-26T20:50:38.468Z,13.13
2022-09-26T20:53:10.540Z,13.20
2022-09-26T20:55:43.217Z,13.25
2022-09-26T20:58:11.871Z,13.30
2022-09-26T21:00:39.851Z,13.40
2022-09-26T21:03:09.256Z,13.33
2022-09-26T21:05:37.808Z,13.25
2022-09-26T21:08:10.111Z,13.39
2022-09-26T21:10:37.974Z,13.45
2022-09-26T21:13:05.789Z,13.48
2022-09-26T21:15:34.190Z,13.33
2022-09-26T21:18:02.742Z,13.45
2022-09-26T21:20:33.772Z,13.60
2022-09-26T21:23:20.823Z,13.44
2022-09-26T21:25:48.694Z,13.36
2022-09-26T21:28:27.511Z,13.46
2022-09-26T21:30:56.265Z,13.32
2022-09-26T21:33:24.400Z,13.17
2022-09-26T21:35:53.614Z,13.23
2022-09-26T21:38:22.242Z,13.09
2022-09-26T21:40:54.186Z,13.19
2022-09-26T21:43:24.394Z,13.24
2022-09-26T21:45:52.347Z,13.09
2022-09-26T21:48:20.157Z,13.16
2022-09-26T21:50:55.298Z,13.17
2022-09-26T21:53:28.998Z,13.21
2022-09-26T21:56:05.112Z,13.20
2022-09-26T21:58:38.010Z,13.23
2022-09-26T22:01:06.122Z,13.06
2022-09-26T22:03:35.761Z,13.09
2022-09-26T22:06:07.415Z,13.26
2022-09-26T22:08:37.106Z,13.27
2022-09-26T22:11:05.212Z,13.30
2022-09-26T22:13:33.686Z,13.26
2022-09-26T22:16:05.958Z,13.34
2022-09-26T22:18:34.121Z,13.33
2022-09-26T22:21:03.807Z,13.13
2022-09-26T22:23:32.030Z,13.33
2022-09-26T22:26:01.359Z,13.24
2022-09-26T22:28:29.685Z,13.29
2022-09-26T22:31:01.154Z,13.10
2022-09-26T22:33:29.270Z,13.31
2022-09-26T22:35:57.332Z,13.20
2022-09-26T22:38:25.380Z,13.37
2022-09-26T22:40:57.286Z,13.26
2022-09-26T22:43:26.737Z,13.29
2022-09-26T22:45:54.635Z,13.26
2022-09-26T22:48:22.502Z,13.22
2022-09-26T22:50:50.373Z,13.08
2022-09-26T22:53:18.188Z,13.25
2022-09-26T22:55:54.293Z,13.20
2022-09-26T22:58:22.609Z,13.18
2022-09-26T23:00:52.327Z,13.05
2022-09-26T23:03:20.470Z,13.03
2022-09-26T23:05:49.929Z,12.90
2022-09-26T23:08:17.806Z,13.05
2022-09-26T23:10:50.085Z,13.10
2022-09-26T23:13:18.062Z,13.19
2022-09-26T23:15:46.412Z,13.06
2022-09-26T23:18:15.636Z,13.29
2022-09-26T23:20:44.617Z,13.41
2022-09-26T23:23:13.529Z,13.53
2022-09-26T23:25:46.538Z,13.51
2022-09-26T23:28:14.613Z,13.36
2022-09-26T23:30:42.882Z,13.57
2022-09-26T23:33:10.858Z,13.67
2022-09-26T23:35:40.385Z,13.52
2022-09-26T23:38:08.223Z,13.44
2022-09-26T23:40:37.648Z,13.40
2022-09-26T23:43:05.455Z,13.37
2022-09-26T23:45:33.644Z,13.30
2022-09-26T23:48:01.832Z,13.28
2022-09-26T23:50:29.628Z,13.21
2022-09-26T23:53:02.251Z,13.27
2022-09-26T23:55:33.802Z,13.22
2022-09-26T23:58:01.676Z,13.09
